Time;durP1;ratioP1;P1;durP2;ratioP2;P2;SDS_P1;SDS_P2;PMS_P1;PMS_P2;Temp;Humidity;BMP_temperature;BMP_pressure;BME280_temperature;BME280_humidity;BME280_pressure;Samples;Min_cycle;Max_cycle;Signal;HPM_P1;HPM_P2
2023/12/23 00:00:11;;;;;;;8.05;2.15;;;;;;;10.89;67.29;96697.16;4924391;28;20130;-78
2023/12/23 00:02:36;;;;;;;5.60;1.50;;;;;;;10.87;67.31;96690.38;4874154;28;20209;-78
2023/12/23 00:05:02;;;;;;;3.03;1.40;;;;;;;11.02;67.23;96699.28;4893520;28;20167;-80
2023/12/23 00:07:27;;;;;;;3.40;1.50;;;;;;;10.89;67.43;96690.13;4904918;28;20394;-80
2023/12/23 00:09:53;;;;;;;6.20;1.48;;;;;;;10.84;67.31;96705.75;4887682;28;20616;-77
2023/12/23 00:12:18;;;;;;;3.40;1.30;;;;;;;11.06;66.41;96705.53;4894673;28;20398;-80
2023/12/23 00:14:44;;;;;;;6.28;1.67;;;;;;;11.02;66.49;96710.47;4914069;28;20612;-79
2023/12/23 00:17:09;;;;;;;4.07;1.13;;;;;;;10.74;67.30;96713.53;4911708;28;20189;-80
2023/12/23 00:19:36;;;;;;;5.90;1.50;;;;;;;10.89;67.20;96704.97;4874777;28;20197;-81
2023/12/23 00:22:02;;;;;;;5.38;1.30;;;;;;;11.12;66.17;96712.31;4893739;28;20636;-81
2023/12/23 00:24:29;;;;;;;3.90;1.20;;;;;;;11.05;66.24;96715.16;4895415;28;20167;-80
2023/12/23 00:26:57;;;;;;;5.00;1.45;;;;;;;11.05;66.84;96724.78;4879134;28;20666;-80
2023/12/23 00:29:26;;;;;;;5.15;1.65;;;;;;;11.07;66.62;96709.69;4876110;28;20348;-81
2023/12/23 00:31:51;;;;;;;4.03;1.35;;;;;;;10.85;66.85;96715.13;4878185;28;20211;-80
2023/12/23 00:34:17;;;;;;;4.72;1.80;;;;;;;11.03;67.33;96721.66;4894742;28;20188;-79
2023/12/23 00:36:43;;;;;;;3.78;1.65;;;;;;;10.85;67.05;96717.72;4870792;28;20193;-82
2023/12/23 00:39:08;;;;;;;4.30;1.77;;;;;;;10.80;67.29;96733.34;4905300;28;20245;-81
2023/12/23 00:41:34;;;;;;;4.40;1.60;;;;;;;10.79;68.11;96734.38;4899682;28;20251;-80
2023/12/23 00:43:59;;;;;;;5.95;1.80;;;;;;;10.92;67.40;96733.88;4880557;28;20206;-79
2023/12/23 00:46:25;;;;;;;4.82;1.80;;;;;;;10.79;67.98;96736.97;4896734;28;20291;-80
2023/12/23 00:48:50;;;;;;;4.63;2.00;;;;;;;10.80;67.27;96741.94;4893700;28;20274;-82
2023/12/23 00:51:15;;;;;;;5.35;1.42;;;;;;;10.60;68.13;96740.03;4911288;28;20401;-82
2023/12/23 00:53:41;;;;;;;4.00;1.58;;;;;;;10.87;66.81;96744.28;4890512;28;20280;-82
2023/12/23 00:56:06;;;;;;;7.07;1.80;;;;;;;10.88;66.65;96748.44;4891636;28;20191;-81
2023/12/23 00:58:32;;;;;;;4.25;1.63;;;;;;;10.96;66.21;96745.34;4885439;28;20633;-83
2023/12/23 01:00:57;;;;;;;6.55;1.95;;;;;;;10.71;67.79;96756.50;4924039;28;20283;-79
2023/12/23 01:03:23;;;;;;;3.25;1.48;;;;;;;10.76;67.35;96750.50;4897862;28;20646;-79
2023/12/23 01:05:48;;;;;;;6.55;2.00;;;;;;;11.08;66.13;96759.97;4913314;28;20690;-80
2023/12/23 01:08:13;;;;;;;4.40;1.25;;;;;;;10.73;67.06;96756.22;4894431;28;20280;-79
2023/12/23 01:10:39;;;;;;;3.65;1.58;;;;;;;10.98;65.37;96784.16;4885773;28;20170;-79
2023/12/23 01:13:04;;;;;;;5.05;1.50;;;;;;;10.96;65.32;96776.59;4886416;28;20188;-79
2023/12/23 01:15:29;;;;;;;3.92;1.67;;;;;;;10.90;65.73;96774.25;4884957;28;20280;-81
2023/12/23 01:17:55;;;;;;;6.30;1.63;;;;;;;11.11;65.33;96775.09;4887914;28;20197;-79
2023/12/23 01:20:20;;;;;;;6.30;1.92;;;;;;;11.23;65.01;96773.03;4868172;28;20197;-79
2023/12/23 01:22:46;;;;;;;4.60;1.60;;;;;;;11.25;64.64;96770.94;4886384;28;20280;-81
2023/12/23 01:25:11;;;;;;;4.40;1.30;;;;;;;10.97;65.47;96780.78;4901828;28;20288;-80
2023/12/23 01:27:37;;;;;;;2.92;1.20;;;;;;;10.73;66.20;96764.03;4888747;28;20240;-79
2023/12/23 01:30:02;;;;;;;4.70;1.60;;;;;;;10.98;66.19;96761.50;4888364;28;20257;-79
2023/12/23 01:32:30;;;;;;;3.40;1.40;;;;;;;10.77;67.10;96762.50;4867578;28;20285;-78
2023/12/23 01:34:55;;;;;;;3.90;1.50;;;;;;;10.83;66.52;96767.47;4861452;28;20328;-81
2023/12/23 01:37:20;;;;;;;5.68;1.40;;;;;;;10.78;67.14;96777.06;4893236;28;20284;-80
2023/12/23 01:39:46;;;;;;;2.45;1.60;;;;;;;10.82;67.00;96772.94;4894436;28;20560;-80
2023/12/23 01:42:11;;;;;;;2.03;1.20;;;;;;;10.91;66.12;96784.41;4914588;28;20275;-80
2023/12/23 01:44:37;;;;;;;4.63;1.85;;;;;;;10.92;66.23;96793.78;4905623;28;20284;-80
2023/12/23 01:47:04;;;;;;;3.20;1.20;;;;;;;10.62;67.19;96808.25;4884974;28;20187;-77
2023/12/23 01:49:30;;;;;;;4.75;2.03;;;;;;;10.84;66.82;96794.28;4882243;28;20202;-79
2023/12/23 01:51:56;;;;;;;6.65;1.70;;;;;;;10.84;66.08;96791.69;4897396;28;20205;-81
2023/12/23 01:54:22;;;;;;;4.80;1.77;;;;;;;10.83;65.64;96796.13;4876088;28;20189;-81
2023/12/23 01:56:49;;;;;;;3.63;1.73;;;;;;;10.81;66.37;96802.59;4910600;28;20204;-80
2023/12/23 01:59:16;;;;;;;4.03;1.63;;;;;;;10.90;65.63;96802.88;4902904;28;20691;-82
2023/12/23 02:01:43;;;;;;;5.03;2.05;;;;;;;10.90;65.60;96810.72;4894848;28;20252;-81
2023/12/23 02:04:08;;;;;;;6.28;2.40;;;;;;;10.92;65.43;96808.66;4887832;28;20271;-80
2023/12/23 02:06:34;;;;;;;7.30;1.65;;;;;;;10.81;65.81;96803.41;4888017;28;20203;-81
2023/12/23 02:09:04;;;;;;;3.47;1.70;;;;;;;10.79;65.64;96800.25;4888638;28;20641;-82
2023/12/23 02:11:49;;;;;;;5.38;1.60;;;;;;;11.07;64.94;96800.88;4890387;28;20307;-80
2023/12/23 02:14:27;;;;;;;6.50;2.22;;;;;;;11.14;64.77;96803.22;4897634;28;20204;-80
2023/12/23 02:16:52;;;;;;;8.02;2.15;;;;;;;10.97;65.23;96793.03;4897621;28;20261;-81
2023/12/23 02:19:18;;;;;;;3.40;1.98;;;;;;;11.02;65.06;96793.81;4890478;28;20141;-80
2023/12/23 02:21:45;;;;;;;3.88;1.85;;;;;;;10.77;65.25;96801.56;4920680;28;20212;-78
2023/12/23 02:24:10;;;;;;;5.80;1.90;;;;;;;10.84;65.31;96807.31;4893524;28;20197;-77
2023/12/23 02:26:41;;;;;;;4.03;1.80;;;;;;;10.85;65.34;96809.66;4879859;28;20310;-83
2023/12/23 02:29:07;;;;;;;4.63;1.58;;;;;;;11.07;64.55;96819.13;4896908;28;20174;-80
2023/12/23 02:31:34;;;;;;;4.20;1.80;;;;;;;11.04;64.66;96806.59;4881777;28;20197;-81
2023/12/23 02:34:00;;;;;;;4.55;1.55;;;;;;;10.89;64.87;96809.94;4912416;28;20196;-80
2023/12/23 02:36:26;;;;;;;3.70;1.70;;;;;;;10.98;64.73;96812.81;4889884;28;20114;-79
2023/12/23 02:38:52;;;;;;;5.13;1.58;;;;;;;10.76;65.63;96807.78;4918708;28;20042;-80
2023/12/23 02:41:21;;;;;;;5.28;2.42;;;;;;;11.05;64.72;96803.75;4897803;28;20197;-80
2023/12/23 02:43:48;;;;;;;8.32;2.15;;;;;;;11.15;64.85;96815.22;4877877;28;20754;-80
2023/12/23 02:46:13;;;;;;;6.13;2.53;;;;;;;10.86;65.31;96803.44;4899087;28;20347;-81
2023/12/23 02:48:40;;;;;;;4.18;1.48;;;;;;;10.87;64.97;96812.78;4900979;28;20279;-81
2023/12/23 02:51:09;;;;;;;5.20;1.65;;;;;;;10.81;66.28;96803.41;4902258;28;20131;-83
2023/12/23 02:53:36;;;;;;;3.17;1.67;;;;;;;10.87;66.29;96794.56;4919667;28;20350;-79
2023/12/23 02:56:02;;;;;;;7.32;1.90;;;;;;;10.92;66.09;96806.81;4881339;28;20210;-80
2023/12/23 02:58:28;;;;;;;3.10;1.60;;;;;;;10.90;65.95;96801.09;4883852;28;20213;-79
2023/12/23 03:00:54;;;;;;;4.38;1.70;;;;;;;10.68;66.33;96802.03;4893578;28;20209;-79
2023/12/23 03:03:19;;;;;;;4.22;2.35;;;;;;;10.75;65.95;96788.78;4879104;28;20217;-80
2023/12/23 03:05:45;;;;;;;5.65;1.70;;;;;;;10.68;66.59;96807.25;4877276;28;20171;-79
2023/12/23 03:08:11;;;;;;;5.72;1.40;;;;;;;10.75;66.42;96798.44;4880070;28;20468;-81
2023/12/23 03:10:37;;;;;;;3.95;1.92;;;;;;;10.76;66.35;96806.00;4874761;28;20312;-80
2023/12/23 03:13:04;;;;;;;3.92;1.60;;;;;;;10.85;65.78;96803.69;4891564;28;20641;-81
2023/12/23 03:15:30;;;;;;;4.90;1.85;;;;;;;10.81;65.59;96805.19;4907808;28;20240;-80
2023/12/23 03:17:55;;;;;;;4.90;1.63;;;;;;;10.89;65.47;96796.91;4876801;28;20499;-80
2023/12/23 03:20:22;;;;;;;5.70;1.90;;;;;;;10.98;65.54;96782.34;4889111;28;20231;-79
2023/12/23 03:22:48;;;;;;;3.95;1.38;;;;;;;10.92;65.75;96793.03;4896672;28;20272;-80
2023/12/23 03:25:13;;;;;;;3.13;1.10;;;;;;;10.93;65.83;96784.16;4893296;28;20206;-79
2023/12/23 03:27:39;;;;;;;5.97;1.63;;;;;;;10.70;66.63;96790.59;4894512;28;20292;-82
2023/12/23 03:30:05;;;;;;;4.50;1.38;;;;;;;10.58;67.40;96778.56;4898242;28;20198;-80
2023/12/23 03:32:30;;;;;;;4.97;1.98;;;;;;;10.75;66.75;96756.75;4880362;28;20198;-80
2023/12/23 03:34:56;;;;;;;4.78;1.63;;;;;;;10.76;66.40;96764.31;4892607;28;20213;-80
2023/12/23 03:37:21;;;;;;;6.93;2.28;;;;;;;10.49;67.67;96772.28;4892471;28;20242;-81
2023/12/23 03:39:47;;;;;;;5.95;1.73;;;;;;;10.58;67.26;96769.97;4915857;28;20230;-81
2023/12/23 03:42:12;;;;;;;5.70;2.08;;;;;;;10.60;67.19;96775.69;4909293;28;20651;-79
2023/12/23 03:44:38;;;;;;;6.57;1.55;;;;;;;10.77;67.09;96770.31;4888830;28;20163;-79
2023/12/23 03:47:06;;;;;;;6.10;1.77;;;;;;;10.39;68.00;96770.41;4885310;28;20682;-80
2023/12/23 03:49:32;;;;;;;2.95;1.65;;;;;;;10.44;67.29;96762.63;4892412;28;20187;-80
2023/12/23 03:51:59;;;;;;;7.55;2.08;;;;;;;10.53;66.88;96762.91;4875224;28;20244;-79
2023/12/23 03:54:25;;;;;;;4.05;1.60;;;;;;;10.56;66.69;96762.41;4882499;28;20350;-80
2023/12/23 03:56:50;;;;;;;4.05;1.55;;;;;;;10.66;66.62;96764.28;4880423;28;20294;-78
2023/12/23 03:59:15;;;;;;;2.28;1.50;;;;;;;10.45;67.08;96750.38;4890352;28;20168;-78
2023/12/23 04:01:43;;;;;;;6.53;1.25;;;;;;;10.46;67.39;96751.97;4906029;28;20092;-79
2023/12/23 04:04:09;;;;;;;5.28;2.38;;;;;;;10.61;67.09;96749.41;4873183;28;20616;-79
2023/12/23 04:06:35;;;;;;;3.70;1.70;;;;;;;10.74;65.44;96749.97;4870211;28;20218;-79
2023/12/23 04:09:01;;;;;;;5.38;1.38;;;;;;;10.62;65.61;96748.34;4894484;28;20115;-78
2023/12/23 04:11:28;;;;;;;5.10;1.48;;;;;;;10.78;65.71;96746.63;4874011;28;20198;-78
2023/12/23 04:13:55;;;;;;;3.17;1.23;;;;;;;10.71;66.02;96738.25;4884225;28;20288;-79
2023/12/23 04:16:21;;;;;;;5.82;1.45;;;;;;;10.95;65.05;96746.41;4873224;28;20389;-79
2023/12/23 04:18:47;;;;;;;4.25;1.50;;;;;;;10.99;65.21;96744.06;4888214;28;20383;-79
2023/12/23 04:21:12;;;;;;;5.45;1.70;;;;;;;10.78;65.62;96722.38;4916953;28;20209;-79
2023/12/23 04:23:38;;;;;;;5.22;1.63;;;;;;;10.63;65.84;96728.34;4873624;28;20313;-78
2023/12/23 04:26:04;;;;;;;4.57;1.30;;;;;;;10.75;65.16;96731.50;4911675;28;20662;-79
2023/12/23 04:28:30;;;;;;;6.63;1.67;;;;;;;10.77;65.29;96749.47;4873404;28;20297;-78
2023/12/23 04:30:56;;;;;;;6.75;1.83;;;;;;;10.85;64.79;96757.56;4888719;28;20325;-78
2023/12/23 04:33:22;;;;;;;3.88;1.73;;;;;;;10.89;64.68;96763.03;4888742;28;20651;-78
2023/12/23 04:35:48;;;;;;;3.15;1.50;;;;;;;10.91;64.65;96760.97;4885440;28;20270;-79
2023/12/23 04:38:14;;;;;;;2.28;1.50;;;;;;;10.92;64.71;96754.72;4888582;28;20210;-79
2023/12/23 04:40:40;;;;;;;6.90;2.45;;;;;;;10.94;64.08;96755.25;4893140;28;20245;-79
2023/12/23 04:43:06;;;;;;;5.43;1.90;;;;;;;10.87;63.97;96733.88;4911802;28;20280;-80
2023/12/23 04:45:31;;;;;;;3.13;1.27;;;;;;;11.00;63.76;96759.44;4903692;28;20352;-80
2023/12/23 04:47:56;;;;;;;3.05;1.42;;;;;;;10.76;64.46;96753.09;4917471;28;20174;-79
2023/12/23 04:50:22;;;;;;;5.95;1.70;;;;;;;10.72;65.08;96758.03;4907644;28;20198;-81
2023/12/23 04:52:47;;;;;;;4.38;1.67;;;;;;;10.71;64.26;96761.69;4874304;28;20568;-79
2023/12/23 04:55:12;;;;;;;6.10;1.63;;;;;;;10.61;65.44;96770.25;4885713;28;20660;-79
2023/12/23 04:57:38;;;;;;;5.55;2.03;;;;;;;10.81;65.02;96761.75;4898062;28;20253;-80
2023/12/23 05:00:05;;;;;;;5.60;1.95;;;;;;;10.67;65.12;96745.78;4904549;28;20334;-79
2023/12/23 05:02:32;;;;;;;5.05;1.83;;;;;;;10.61;65.00;96744.22;4917751;28;20037;-80
2023/12/23 05:04:58;;;;;;;4.38;1.90;;;;;;;10.83;64.41;96749.22;4915968;28;20165;-80
2023/12/23 05:07:24;;;;;;;5.70;2.00;;;;;;;10.95;64.05;96762.03;4911286;28;20262;-81
2023/12/23 05:09:50;;;;;;;6.38;1.55;;;;;;;10.90;64.64;96749.00;4893145;28;20730;-79
2023/12/23 05:12:15;;;;;;;4.90;1.73;;;;;;;10.66;65.21;96743.44;4880392;28;20360;-79
2023/12/23 05:14:40;;;;;;;6.63;2.13;;;;;;;10.93;63.98;96732.84;4920547;28;20435;-79
2023/12/23 05:17:06;;;;;;;5.70;1.80;;;;;;;10.82;64.06;96737.25;4889621;28;20357;-80
2023/12/23 05:19:34;;;;;;;5.28;2.53;;;;;;;10.86;64.59;96753.13;4895564;28;20579;-79
2023/12/23 05:21:59;;;;;;;5.47;2.28;;;;;;;10.56;65.56;96752.00;4886737;28;20189;-79
2023/12/23 05:24:24;;;;;;;4.65;1.33;;;;;;;10.60;65.12;96750.44;4889086;28;20678;-80
2023/12/23 05:26:50;;;;;;;7.97;2.13;;;;;;;10.81;64.24;96756.53;4897266;28;20046;-81
2023/12/23 05:29:15;;;;;;;2.90;2.00;;;;;;;10.53;65.35;96755.09;4895275;28;20209;-80
2023/12/23 05:31:41;;;;;;;7.72;2.03;;;;;;;10.35;66.21;96750.31;4892735;28;20222;-79
2023/12/23 05:34:10;;;;;;;5.93;1.60;;;;;;;10.42;66.02;96753.50;4893837;28;20042;-79
2023/12/23 05:36:35;;;;;;;2.72;1.38;;;;;;;10.53;65.37;96736.88;4895443;28;20205;-81
2023/12/23 05:39:01;;;;;;;2.78;1.60;;;;;;;10.66;64.71;96720.78;4912112;28;20646;-80
2023/12/23 05:41:26;;;;;;;5.28;1.60;;;;;;;10.72;64.97;96747.63;4893235;28;20283;-80
2023/12/23 05:43:51;;;;;;;5.63;2.13;;;;;;;10.72;64.65;96736.44;4900595;28;20324;-80
2023/12/23 05:46:17;;;;;;;4.63;1.52;;;;;;;10.76;64.85;96737.47;4914331;28;20214;-80
2023/12/23 05:48:42;;;;;;;4.28;1.85;;;;;;;10.61;65.05;96749.41;4916836;28;20258;-80
2023/12/23 05:51:11;;;;;;;3.20;1.40;;;;;;;10.73;64.97;96745.78;4904469;28;20337;-81
2023/12/23 05:53:36;;;;;;;5.28;2.10;;;;;;;10.45;65.74;96748.56;4891414;28;20190;-80
2023/12/23 05:56:05;;;;;;;4.93;1.40;;;;;;;10.50;65.32;96742.59;4874693;28;20214;-79
2023/12/23 05:58:31;;;;;;;3.58;1.40;;;;;;;10.46;65.02;96731.13;4892386;28;20333;-81
2023/12/23 06:00:57;;;;;;;3.85;1.20;;;;;;;10.68;64.94;96736.94;4889969;28;20298;-79
2023/12/23 06:03:22;;;;;;;4.85;1.80;;;;;;;10.38;65.14;96742.78;4883178;28;20294;-78
2023/12/23 06:05:47;;;;;;;6.50;1.63;;;;;;;10.38;65.67;96731.63;4919188;28;20267;-79
2023/12/23 06:08:13;;;;;;;6.28;1.55;;;;;;;10.37;66.17;96733.44;4894126;28;20586;-80
2023/12/23 06:10:38;;;;;;;2.92;1.50;;;;;;;10.60;64.93;96745.25;4884834;28;20251;-80
2023/12/23 06:13:04;;;;;;;2.90;1.40;;;;;;;10.43;65.66;96739.44;4900537;28;20311;-80
2023/12/23 06:15:30;;;;;;;4.20;1.95;;;;;;;10.46;65.08;96737.13;4898791;28;20260;-82
2023/12/23 06:17:55;;;;;;;3.17;1.05;;;;;;;10.63;65.17;96754.38;4922309;28;20197;-81
2023/12/23 06:20:20;;;;;;;4.00;2.50;;;;;;;10.60;65.04;96745.25;4881830;28;20196;-80
2023/12/23 06:22:46;;;;;;;6.03;2.97;;;;;;;10.73;64.31;96748.41;4894362;28;20686;-80
2023/12/23 06:25:11;;;;;;;3.83;1.55;;;;;;;10.63;64.38;96757.75;4896295;28;20616;-80
2023/12/23 06:27:37;;;;;;;5.72;1.85;;;;;;;10.24;65.84;96746.88;4899104;28;20289;-82
2023/12/23 06:30:03;;;;;;;5.32;1.52;;;;;;;10.60;64.89;96736.66;4918543;28;20199;-80
2023/12/23 06:32:28;;;;;;;4.93;1.60;;;;;;;10.61;64.80;96743.44;4876252;28;20373;-79
2023/12/23 06:34:54;;;;;;;4.97;1.48;;;;;;;10.57;64.18;96745.75;4877481;28;20213;-80
2023/12/23 06:37:19;;;;;;;4.60;1.90;;;;;;;10.44;64.62;96725.41;4892026;28;20280;-80
2023/12/23 06:39:45;;;;;;;6.55;3.05;;;;;;;10.54;64.25;96733.25;4893498;28;20213;-80
2023/12/23 06:42:10;;;;;;;3.67;1.80;;;;;;;10.22;65.48;96734.09;4872247;28;20529;-81
2023/12/23 06:44:35;;;;;;;5.25;2.00;;;;;;;10.58;64.34;96742.13;4907901;28;20274;-79
2023/12/23 06:47:01;;;;;;;3.60;1.60;;;;;;;10.46;65.18;96729.31;4877184;28;20213;-80
2023/12/23 06:49:27;;;;;;;3.22;1.33;;;;;;;10.57;64.22;96735.31;4876919;28;20171;-81
2023/12/23 06:51:53;;;;;;;6.38;1.33;;;;;;;10.49;64.60;96722.81;4900788;28;20520;-79
2023/12/23 06:54:19;;;;;;;3.08;1.40;;;;;;;10.25;65.04;96699.00;4902948;28;20290;-78
2023/12/23 06:56:44;;;;;;;4.57;1.40;;;;;;;10.50;64.73;96734.78;4920963;28;20715;-80
2023/12/23 06:59:12;;;;;;;4.38;1.67;;;;;;;10.28;65.76;96733.13;4891958;28;20241;-79
2023/12/23 07:01:39;;;;;;;2.28;1.40;;;;;;;10.26;66.35;96703.97;4916324;28;20216;-80
2023/12/23 07:04:06;;;;;;;1.80;1.60;;;;;;;10.23;65.89;96714.88;4897862;28;20743;-81
2023/12/23 07:06:31;;;;;;;2.35;1.50;;;;;;;10.19;66.12;96723.44;4894146;28;20253;-78
2023/12/23 07:08:57;;;;;;;1.77;1.48;;;;;;;10.01;66.77;96722.03;4914810;28;20336;-82
2023/12/23 07:11:22;;;;;;;2.85;1.60;;;;;;;10.02;67.36;96711.38;4881558;28;20666;-81
2023/12/23 07:13:48;;;;;;;5.25;1.63;;;;;;;9.80;67.75;96723.72;4890266;28;20258;-81
2023/12/23 07:16:14;;;;;;;4.38;1.50;;;;;;;10.09;67.18;96704.13;4884596;28;20202;-80
2023/12/23 07:18:39;;;;;;;3.03;1.67;;;;;;;10.18;66.99;96725.25;4895963;28;20098;-81
2023/12/23 07:21:05;;;;;;;4.80;1.55;;;;;;;9.99;67.70;96730.09;4892963;28;20291;-80
2023/12/23 07:23:30;;;;;;;3.55;1.70;;;;;;;10.22;66.58;96731.50;4887981;28;20280;-79
2023/12/23 07:25:55;;;;;;;3.50;1.42;;;;;;;9.96;68.03;96740.22;4905715;28;20254;-81
2023/12/23 07:28:21;;;;;;;1.88;1.45;;;;;;;9.96;68.63;96745.41;4876063;28;20292;-80
2023/12/23 07:30:46;;;;;;;3.45;1.95;;;;;;;10.17;66.93;96725.50;4877071;28;20665;-81
2023/12/23 07:33:12;;;;;;;2.10;1.48;;;;;;;10.23;66.62;96748.69;4888579;28;20759;-81
2023/12/23 07:35:38;;;;;;;2.13;1.63;;;;;;;10.29;66.67;96737.25;4907965;28;20693;-80
2023/12/23 07:38:03;;;;;;;2.33;1.23;;;;;;;10.19;67.21;96744.25;4889010;28;20318;-81
2023/12/23 07:40:29;;;;;;;3.42;1.38;;;;;;;10.28;67.66;96738.31;4896463;28;20291;-80
2023/12/23 07:42:54;;;;;;;3.50;1.52;;;;;;;10.14;67.81;96731.97;4876720;28;20188;-80
2023/12/23 07:45:21;;;;;;;3.17;1.60;;;;;;;9.91;69.10;96733.94;4879718;28;20243;-79
2023/12/23 07:47:47;;;;;;;2.83;1.17;;;;;;;10.32;67.92;96741.22;4907357;28;20260;-80
2023/12/23 07:50:13;;;;;;;2.55;1.00;;;;;;;10.27;68.03;96752.34;4892440;28;20623;-79
2023/12/23 07:52:39;;;;;;;1.75;1.20;;;;;;;10.01;68.85;96748.81;4877786;28;20185;-79
2023/12/23 07:55:06;;;;;;;1.23;1.00;;;;;;;10.07;68.69;96750.41;4913731;28;20034;-80
2023/12/23 07:57:31;;;;;;;1.33;0.95;;;;;;;10.12;68.98;96760.84;4894196;28;20129;-81
2023/12/23 07:59:56;;;;;;;1.98;0.98;;;;;;;10.33;68.57;96750.56;4892628;28;20133;-81
2023/12/23 08:02:22;;;;;;;3.95;1.20;;;;;;;10.12;68.73;96747.06;4881438;28;20202;-80
2023/12/23 08:04:48;;;;;;;3.33;1.30;;;;;;;10.21;68.77;96755.19;4917824;28;20446;-79
2023/12/23 08:07:13;;;;;;;2.22;1.23;;;;;;;10.40;68.54;96747.75;4885405;28;20166;-79
2023/12/23 08:09:38;;;;;;;1.92;1.15;;;;;;;10.29;68.68;96754.69;4879296;28;20166;-80
2023/12/23 08:12:05;;;;;;;1.38;0.80;;;;;;;10.34;68.58;96748.78;4897943;28;20269;-79
2023/12/23 08:14:30;;;;;;;2.30;0.80;;;;;;;10.23;69.03;96751.31;4874052;28;20245;-79
2023/12/23 08:16:56;;;;;;;1.00;0.70;;;;;;;10.35;68.76;96755.53;4919058;28;20625;-79
2023/12/23 08:19:21;;;;;;;2.15;0.60;;;;;;;10.21;69.06;96755.97;4879143;28;20193;-80
2023/12/23 08:21:46;;;;;;;2.22;1.20;;;;;;;10.24;69.50;96760.66;4871169;28;20250;-78
2023/12/23 08:24:13;;;;;;;1.02;0.90;;;;;;;10.10;70.22;96759.53;4892790;28;20203;-80
2023/12/23 08:26:38;;;;;;;1.52;0.60;;;;;;;10.02;70.19;96762.59;4894500;28;20119;-79
2023/12/23 08:29:04;;;;;;;1.67;0.47;;;;;;;10.20;70.32;96766.63;4871196;28;20181;-79
2023/12/23 08:31:29;;;;;;;1.45;0.60;;;;;;;10.39;69.09;96773.00;4879044;28;20175;-80
2023/12/23 08:33:54;;;;;;;0.75;0.50;;;;;;;10.44;69.69;96785.25;4912782;28;20830;-80
2023/12/23 08:36:20;;;;;;;0.55;0.55;;;;;;;10.20;70.24;96784.84;4907540;28;20384;-80
2023/12/23 08:38:45;;;;;;;1.35;0.52;;;;;;;10.19;70.52;96781.44;4888677;28;20114;-78
2023/12/23 08:41:11;;;;;;;2.45;0.45;;;;;;;10.09;70.47;96779.56;4892640;28;20026;-79
2023/12/23 08:43:36;;;;;;;0.60;0.40;;;;;;;10.26;70.35;96784.63;4899245;28;20629;-78
2023/12/23 08:46:01;;;;;;;0.50;0.30;;;;;;;10.27;70.60;96783.56;4894511;28;20277;-79
2023/12/23 08:48:27;;;;;;;0.82;0.30;;;;;;;10.20;70.88;96796.03;4877633;28;20218;-79
2023/12/23 08:50:53;;;;;;;0.20;0.20;;;;;;;10.07;71.03;96780.84;4918258;28;20583;-79
2023/12/23 08:53:19;;;;;;;0.85;0.20;;;;;;;10.11;71.12;96787.91;4895965;28;20189;-79
2023/12/23 08:55:44;;;;;;;0.90;0.30;;;;;;;9.94;71.38;96775.03;4889473;28;20258;-78
2023/12/23 08:58:12;;;;;;;0.50;0.30;;;;;;;10.21;70.92;96761.19;4882989;28;20730;-78
2023/12/23 09:00:37;;;;;;;0.50;0.30;;;;;;;10.22;70.76;96774.97;4884632;28;20285;-79
2023/12/23 09:03:03;;;;;;;0.30;0.28;;;;;;;10.29;70.30;96780.72;4894613;28;20261;-80
2023/12/23 09:05:28;;;;;;;0.57;0.20;;;;;;;10.34;70.98;96808.63;4916062;28;20137;-80
2023/12/23 09:07:54;;;;;;;0.40;0.17;;;;;;;10.19;71.59;96796.28;4897382;28;20260;-79
2023/12/23 09:10:19;;;;;;;1.27;0.20;;;;;;;10.38;70.56;96774.03;4891994;28;20343;-79
2023/12/23 09:12:45;;;;;;;0.20;0.20;;;;;;;10.08;70.97;96785.03;4894905;28;20304;-80
2023/12/23 09:15:10;;;;;;;0.30;0.20;;;;;;;10.18;70.81;96784.28;4894863;28;20501;-79
2023/12/23 09:17:35;;;;;;;0.30;0.20;;;;;;;10.27;71.15;96785.41;4912839;28;20626;-79
2023/12/23 09:20:04;;;;;;;0.40;0.30;;;;;;;10.18;71.63;96786.88;4876498;28;20195;-80
2023/12/23 09:22:30;;;;;;;1.17;0.30;;;;;;;10.35;71.03;96784.97;4887606;28;20200;-78
2023/12/23 09:24:56;;;;;;;0.65;0.38;;;;;;;10.17;71.17;96786.13;4882311;28;20237;-80
2023/12/23 09:27:21;;;;;;;0.20;0.20;;;;;;;9.89;72.36;96784.63;4900111;28;20710;-83
2023/12/23 09:29:46;;;;;;;0.50;0.30;;;;;;;10.08;71.21;96785.03;4909804;28;20524;-80
2023/12/23 09:32:12;;;;;;;0.20;0.20;;;;;;;10.12;71.79;96792.06;4889344;28;20560;-79
2023/12/23 09:34:37;;;;;;;0.40;0.30;;;;;;;10.21;70.79;96783.78;4907521;28;20363;-80
2023/12/23 09:37:03;;;;;;;0.40;0.30;;;;;;;10.30;70.70;96796.09;4891920;28;20230;-79
2023/12/23 09:39:28;;;;;;;1.23;0.30;;;;;;;10.30;70.60;96793.50;4879918;28;20667;-79
2023/12/23 09:41:54;;;;;;;0.68;0.30;;;;;;;10.26;71.02;96792.44;4909986;28;20647;-79
2023/12/23 09:44:20;;;;;;;0.35;0.20;;;;;;;10.03;71.74;96793.56;4893840;28;20298;-78
2023/12/23 09:46:46;;;;;;;1.00;0.30;;;;;;;10.21;70.96;96794.19;4892353;28;20488;-80
2023/12/23 09:49:11;;;;;;;0.40;0.40;;;;;;;10.35;70.76;96787.56;4875281;28;20115;-79
2023/12/23 09:51:36;;;;;;;0.45;0.20;;;;;;;10.29;70.31;96786.69;4880142;28;20216;-79
2023/12/23 09:54:04;;;;;;;0.30;0.20;;;;;;;10.34;71.06;96777.41;4907873;28;20315;-80
2023/12/23 09:56:30;;;;;;;0.35;0.20;;;;;;;10.41;70.67;96788.38;4908061;28;20358;-80
2023/12/23 09:58:56;;;;;;;0.20;0.20;;;;;;;10.49;69.74;96777.47;4889336;28;20479;-79
2023/12/23 10:01:21;;;;;;;0.30;0.20;;;;;;;10.26;71.27;96784.63;4856782;28;20636;-79
2023/12/23 10:03:47;;;;;;;0.28;0.20;;;;;;;10.22;70.99;96790.56;4859279;28;20171;-80
2023/12/23 10:06:13;;;;;;;0.90;0.20;;;;;;;10.24;71.84;96785.91;4896880;28;20321;-81
2023/12/23 10:08:39;;;;;;;0.20;0.20;;;;;;;10.37;70.32;96779.50;4905304;28;20652;-83
2023/12/23 10:11:05;;;;;;;0.20;0.20;;;;;;;10.70;69.75;96785.38;4875522;28;20201;-79
2023/12/23 10:13:30;;;;;;;0.73;0.25;;;;;;;10.68;69.59;96773.41;4888560;28;20164;-80
2023/12/23 10:15:56;;;;;;;0.95;0.20;;;;;;;10.32;70.94;96777.66;4872670;28;20357;-79
2023/12/23 10:18:21;;;;;;;0.20;0.20;;;;;;;10.43;70.90;96794.88;4874868;28;20264;-80
2023/12/23 10:20:46;;;;;;;1.25;0.20;;;;;;;10.53;70.72;96781.13;4891985;28;20209;-79
2023/12/23 10:23:12;;;;;;;0.75;0.20;;;;;;;10.11;72.12;96776.72;4902631;28;20272;-79
2023/12/23 10:25:38;;;;;;;0.22;0.20;;;;;;;10.40;70.63;96799.81;4907998;28;20687;-80
2023/12/23 10:28:06;;;;;;;0.43;0.38;;;;;;;10.30;71.01;96777.88;4892961;28;20205;-82
2023/12/23 10:30:34;;;;;;;0.75;0.40;;;;;;;10.22;71.21;96770.53;4886775;28;20261;-79
2023/12/23 10:33:05;;;;;;;0.20;0.20;;;;;;;10.36;71.05;96780.53;4892029;28;20380;-80
2023/12/23 10:35:36;;;;;;;0.95;0.30;;;;;;;10.45;70.12;96747.78;4893257;28;20171;-81
2023/12/23 10:38:02;;;;;;;0.55;0.52;;;;;;;10.36;71.18;96793.53;4875714;28;20217;-79
2023/12/23 10:40:28;;;;;;;0.50;0.43;;;;;;;10.48;70.34;96770.69;4857516;28;20305;-79
2023/12/23 10:42:54;;;;;;;0.85;0.30;;;;;;;10.48;70.62;96787.09;4873415;28;20163;-80
2023/12/23 10:45:21;;;;;;;0.28;0.28;;;;;;;10.48;70.47;96797.50;4890145;28;20265;-82
2023/12/23 10:47:47;;;;;;;1.88;0.30;;;;;;;10.66;70.06;96801.50;4886727;28;20734;-80
2023/12/23 10:50:14;;;;;;;1.05;0.30;;;;;;;10.74;70.05;96782.00;4906399;28;20201;-79
2023/12/23 10:52:40;;;;;;;0.68;0.50;;;;;;;10.72;70.08;96806.75;4912045;28;20189;-78
2023/12/23 10:55:06;;;;;;;0.40;0.30;;;;;;;10.83;69.50;96797.91;4892279;28;20175;-79
2023/12/23 10:57:34;;;;;;;1.75;0.60;;;;;;;10.57;70.75;96808.22;4874442;28;20339;-79
2023/12/23 11:00:00;;;;;;;0.43;0.25;;;;;;;10.40;70.78;96799.81;4895681;28;20205;-79
2023/12/23 11:02:34;;;;;;;0.45;0.32;;;;;;;10.66;70.29;96795.53;4873732;28;20159;-79
2023/12/23 11:05:02;;;;;;;0.55;0.20;;;;;;;10.57;70.23;96805.63;4874721;28;20285;-78
2023/12/23 11:07:30;;;;;;;0.45;0.28;;;;;;;10.68;70.09;96789.00;4913898;28;20520;-80
2023/12/23 11:10:01;;;;;;;0.95;0.22;;;;;;;10.64;70.50;96790.56;4883329;28;20377;-80
2023/12/23 11:12:30;;;;;;;0.30;0.30;;;;;;;10.54;70.91;96792.31;4891227;28;20210;-79
2023/12/23 11:14:57;;;;;;;1.02;0.20;;;;;;;10.58;70.52;96780.38;4898458;28;20217;-80
2023/12/23 11:17:27;;;;;;;0.68;0.52;;;;;;;10.68;70.41;96781.19;4894256;28;20696;-80
2023/12/23 11:20:03;;;;;;;0.88;0.22;;;;;;;10.46;71.73;96802.19;4906610;28;20305;-80
2023/12/23 11:22:30;;;;;;;0.40;0.28;;;;;;;10.60;70.19;96802.50;4894754;28;20290;-79
2023/12/23 11:24:55;;;;;;;0.47;0.20;;;;;;;10.58;70.45;96799.38;4893839;28;20266;-79
2023/12/23 11:27:31;;;;;;;0.25;0.20;;;;;;;10.79;69.81;96820.31;4907272;28;20225;-80